createdAt,value
2022-10-28T00:01:13.759Z,30.77
2022-10-28T00:03:46.628Z,30.75
2022-10-28T00:06:34.330Z,29.65
2022-10-28T00:09:01.413Z,29.58
2022-10-28T00:11:30.727Z,31.38
2022-10-28T00:13:59.353Z,29.88
2022-10-28T00:16:29.755Z,30.92
2022-10-28T00:18:59.034Z,28.70
2022-10-28T00:21:31.185Z,28.63
2022-10-28T00:23:58.425Z,28.27
2022-10-28T00:26:30.830Z,29.67
2022-10-28T00:29:04.501Z,30.05
2022-10-28T00:31:32.705Z,30.42
2022-10-28T00:34:01.324Z,30.15
2022-10-28T00:36:32.936Z,31.83
2022-10-28T00:39:01.307Z,31.83
2022-10-28T00:41:35.808Z,30.98
2022-10-28T00:44:22.955Z,30.52
2022-10-28T00:46:53.248Z,30.52
2022-10-28T00:49:25.208Z,30.08
2022-10-28T00:52:02.894Z,29.80
2022-10-28T00:54:30.896Z,29.58
2022-10-28T00:56:58.976Z,30.17
2022-10-28T00:59:32.959Z,29.33
2022-10-28T01:01:59.903Z,29.85
2022-10-28T01:04:27.705Z,29.42
2022-10-28T01:06:55.681Z,29.20
2022-10-28T01:09:22.600Z,29.45
2022-10-28T01:12:14.074Z,30.40
2022-10-28T01:14:40.875Z,29.48
2022-10-28T01:17:18.444Z,28.33
2022-10-28T01:19:54.467Z,27.30
2022-10-28T01:22:24.247Z,28.70
2022-10-28T01:25:16.992Z,28.35
2022-10-28T01:28:09.688Z,30.08
2022-10-28T01:31:13.777Z,27.55
2022-10-28T01:33:49.315Z,26.33
2022-10-28T01:36:27.552Z,25.33
2022-10-28T01:39:17.983Z,28.33
2022-10-28T01:42:12.606Z,27.55
2022-10-28T01:44:52.311Z,28.35
2022-10-28T01:47:43.591Z,26.45
2022-10-28T01:50:27.041Z,25.35
2022-10-28T01:52:57.899Z,23.83
2022-10-28T01:55:32.435Z,25.60
2022-10-28T01:58:00.792Z,25.33
2022-10-28T02:00:28.493Z,23.67
2022-10-28T02:02:56.582Z,23.20
2022-10-28T02:05:40.909Z,22.67
2022-10-28T02:08:17.899Z,24.80
2022-10-28T02:11:36.784Z,23.95
2022-10-28T02:14:29.163Z,21.83
2022-10-28T02:17:08.457Z,23.33
2022-10-28T02:20:04.019Z,22.63
2022-10-28T02:23:24.862Z,23.88
2022-10-28T02:26:28.780Z,22.98
2022-10-28T02:29:15.808Z,24.15
2022-10-28T02:32:06.637Z,22.65
2022-10-28T02:34:43.660Z,23.17
2022-10-28T02:37:19.359Z,22.65
2022-10-28T02:39:50.580Z,22.63
2022-10-28T02:42:40.184Z,22.60
2022-10-28T02:45:21.968Z,21.48
2022-10-28T02:47:54.553Z,22.20
2022-10-28T02:50:25.274Z,21.98
2022-10-28T02:52:55.961Z,21.75
2022-10-28T02:55:25.282Z,21.85
2022-10-28T02:57:52.463Z,22.48
2022-10-28T03:00:23.229Z,21.27
2022-10-28T03:02:50.115Z,22.17
2022-10-28T03:05:17.519Z,19.80
2022-10-28T03:07:44.484Z,20.48
2022-10-28T03:10:11.348Z,19.55
2022-10-28T03:12:38.216Z,17.92
2022-10-28T03:15:05.507Z,18.13
2022-10-28T03:17:32.554Z,19.05
2022-10-28T03:19:59.703Z,20.08
2022-10-28T03:22:26.652Z,21.08
2022-10-28T03:24:53.595Z,19.75
2022-10-28T03:27:20.468Z,21.50
2022-10-28T03:29:47.344Z,22.60
2022-10-28T03:32:14.375Z,21.98
2022-10-28T03:34:41.482Z,21.27
2022-10-28T03:37:08.416Z,20.20
2022-10-28T03:39:35.894Z,21.25
2022-10-28T03:42:02.791Z,21.38
2022-10-28T03:44:29.799Z,21.60
2022-10-28T03:46:56.699Z,21.17
2022-10-28T03:49:23.646Z,21.00
2022-10-28T03:51:50.521Z,20.52
2022-10-28T03:54:17.422Z,21.83
2022-10-28T03:56:44.326Z,20.67
2022-10-28T03:59:13.261Z,22.48
2022-10-28T04:01:42.241Z,20.88
2022-10-28T04:04:09.207Z,20.23
2022-10-28T04:06:36.129Z,21.48
2022-10-28T04:09:03.000Z,20.48
2022-10-28T04:11:29.880Z,21.48
2022-10-28T04:13:56.768Z,20.70
2022-10-28T04:16:23.688Z,22.42
2022-10-28T04:18:50.656Z,23.30
2022-10-28T04:21:17.960Z,22.50
2022-10-28T04:23:47.833Z,22.52
2022-10-28T04:26:15.526Z,21.08
2022-10-28T04:28:42.502Z,21.95
2022-10-28T04:31:12.196Z,22.10
2022-10-28T04:33:39.131Z,22.98
2022-10-28T04:36:06.371Z,21.63
2022-10-28T04:38:33.301Z,22.23
2022-10-28T04:41:00.389Z,21.88
2022-10-28T04:43:27.249Z,21.00
2022-10-28T04:45:54.136Z,23.48
2022-10-28T04:48:21.357Z,20.80
2022-10-28T04:50:48.536Z,23.33
2022-10-28T04:53:15.406Z,21.60
2022-10-28T04:55:42.286Z,21.60
2022-10-28T04:58:10.000Z,22.90
2022-10-28T05:00:36.880Z,22.33
2022-10-28T05:03:04.209Z,20.77
2022-10-28T05:05:31.391Z,22.27
2022-10-28T05:07:58.566Z,22.35
2022-10-28T05:10:25.622Z,23.65
2022-10-28T05:12:52.500Z,24.98
2022-10-28T05:15:19.396Z,27.42
2022-10-28T05:17:47.531Z,28.55
2022-10-28T05:20:17.390Z,28.52
2022-10-28T05:22:53.964Z,27.52
2022-10-28T05:25:21.958Z,25.55
2022-10-28T05:27:49.155Z,25.30
2022-10-28T05:30:16.542Z,24.80
2022-10-28T05:32:44.126Z,24.38
2022-10-28T05:35:11.377Z,24.23
2022-10-28T05:37:38.483Z,25.35
2022-10-28T05:40:06.752Z,27.15
2022-10-28T05:42:33.683Z,23.88
2022-10-28T05:45:00.533Z,26.00
2022-10-28T05:47:27.517Z,25.30
2022-10-28T05:49:54.386Z,27.33
2022-10-28T05:52:21.321Z,26.90
2022-10-28T05:54:48.199Z,27.27
2022-10-28T05:57:15.102Z,26.92
2022-10-28T05:59:42.027Z,27.77
2022-10-28T06:02:15.098Z,27.67
2022-10-28T06:04:42.714Z,27.85
2022-10-28T06:07:09.713Z,27.90
2022-10-28T06:09:36.885Z,29.25
2022-10-28T06:12:03.367Z,31.52
2022-10-28T06:14:30.807Z,31.25
2022-10-28T06:16:57.758Z,30.15
2022-10-28T06:19:24.680Z,32.15
2022-10-28T06:21:51.572Z,32.92
2022-10-28T06:24:18.449Z,33.50
2022-10-28T06:26:45.396Z,34.33
2022-10-28T06:29:12.294Z,33.65
2022-10-28T06:31:40.215Z,35.65
2022-10-28T06:34:10.561Z,37.97
2022-10-28T06:36:38.356Z,37.50
2022-10-28T06:39:05.540Z,40.72
2022-10-28T06:41:33.292Z,39.95
2022-10-28T06:44:00.719Z,41.05
2022-10-28T06:46:27.843Z,38.58
2022-10-28T06:48:56.702Z,37.30
2022-10-28T06:51:24.174Z,39.15
2022-10-28T06:53:52.061Z,40.55
2022-10-28T06:56:19.023Z,37.53
2022-10-28T06:58:53.109Z,37.50
2022-10-28T07:01:21.046Z,35.80
2022-10-28T07:03:48.732Z,34.00
2022-10-28T07:06:17.142Z,34.63
2022-10-28T07:08:44.355Z,35.70
2022-10-28T07:11:11.470Z,34.33
2022-10-28T07:13:38.417Z,33.25
2022-10-28T07:16:05.752Z,32.83
2022-10-28T07:22:24.736Z,31.70
2022-10-28T07:24:52.473Z,35.50
2022-10-28T07:27:19.480Z,32.25
2022-10-28T07:29:46.365Z,31.60
2022-10-28T07:32:13.264Z,30.63
2022-10-28T07:34:40.150Z,30.33
2022-10-28T07:37:07.064Z,28.30
2022-10-28T07:39:34.057Z,26.98
2022-10-28T07:42:01.546Z,27.95
2022-10-28T07:44:28.491Z,26.50
2022-10-28T07:46:58.007Z,25.20
2022-10-28T07:49:25.454Z,25.20
2022-10-28T07:51:52.458Z,26.90
2022-10-28T07:54:19.443Z,26.00
2022-10-28T07:56:46.378Z,25.45
2022-10-28T07:59:13.356Z,25.75
2022-10-28T08:01:40.469Z,27.42
2022-10-28T08:04:07.627Z,27.60
2022-10-28T08:06:36.014Z,25.50
2022-10-28T08:09:03.506Z,26.20
2022-10-28T08:11:30.514Z,27.20
2022-10-28T08:13:57.492Z,28.45
2022-10-28T08:16:24.752Z,26.27
2022-10-28T08:18:53.287Z,29.25
2022-10-28T08:21:20.256Z,27.75
2022-10-28T08:23:47.237Z,27.15
2022-10-28T08:26:15.804Z,28.15
2022-10-28T08:28:43.427Z,26.85
2022-10-28T08:31:12.483Z,26.70
2022-10-28T08:33:45.451Z,26.98
2022-10-28T08:36:14.630Z,25.58
2022-10-28T08:38:45.679Z,25.23
2022-10-28T08:41:36.110Z,25.02
2022-10-28T08:44:21.809Z,25.80
2022-10-28T08:47:19.125Z,23.70
2022-10-28T08:49:51.065Z,24.77
2022-10-28T08:52:41.151Z,24.30
2022-10-28T08:55:12.774Z,23.08
2022-10-28T08:57:44.247Z,23.05
2022-10-28T09:00:37.439Z,20.95
2022-10-28T09:03:13.317Z,20.60
2022-10-28T09:05:42.464Z,18.73
2022-10-28T09:08:22.292Z,13.18
2022-10-28T09:11:11.110Z,11.60
2022-10-28T09:14:25.513Z,12.25
2022-10-28T09:17:20.272Z,10.40
2022-10-28T09:19:53.351Z,9.35
2022-10-28T09:22:25.174Z,9.10
2022-10-28T09:24:59.646Z,8.70
2022-10-28T09:28:17.128Z,8.05
2022-10-28T09:31:04.769Z,8.18
2022-10-28T09:33:43.884Z,8.05
2022-10-28T09:36:17.597Z,8.55
2022-10-28T09:38:44.997Z,8.93
2022-10-28T09:41:24.531Z,8.00
2022-10-28T09:44:03.595Z,10.18
2022-10-28T09:46:36.244Z,8.05
2022-10-28T09:49:10.063Z,8.35
2022-10-28T09:52:05.946Z,8.57
2022-10-28T09:54:36.707Z,9.32
2022-10-28T09:57:04.885Z,8.43
2022-10-28T09:59:32.364Z,9.30
2022-10-28T10:01:59.386Z,9.15
2022-10-28T10:04:29.050Z,9.30
2022-10-28T10:07:09.537Z,8.68
2022-10-28T10:09:38.790Z,10.32
2022-10-28T10:12:09.641Z,9.43
2022-10-28T10:14:41.104Z,9.85
2022-10-28T10:17:41.770Z,9.85
2022-10-28T10:20:46.610Z,9.07
2022-10-28T10:23:37.145Z,9.57
2022-10-28T10:26:16.381Z,9.77
2022-10-28T10:28:48.629Z,11.25
2022-10-28T10:31:33.710Z,10.43
2022-10-28T10:34:00.615Z,10.13
2022-10-28T10:36:29.175Z,11.00
2022-10-28T10:39:01.120Z,10.32
2022-10-28T10:41:39.269Z,11.00
2022-10-28T10:44:21.093Z,10.38
2022-10-28T10:47:11.006Z,10.15
2022-10-28T10:49:38.148Z,9.70
2022-10-28T10:52:26.224Z,10.70
2022-10-28T10:55:01.810Z,10.55
2022-10-28T10:57:29.516Z,11.25
2022-10-28T10:59:57.771Z,12.73
2022-10-28T11:02:35.149Z,11.82
2022-10-28T11:05:08.804Z,12.10
2022-10-28T11:07:37.386Z,11.73
2022-10-28T11:10:04.987Z,11.30
2022-10-28T11:12:37.084Z,13.93
2022-10-28T11:15:16.089Z,12.05
2022-10-28T11:17:58.313Z,13.25
2022-10-28T11:20:31.138Z,13.98
2022-10-28T11:23:09.764Z,12.95
2022-10-28T11:25:46.919Z,13.60
2022-10-28T11:28:33.571Z,12.10
2022-10-28T11:31:11.040Z,12.38
2022-10-28T11:34:06.869Z,11.48
2022-10-28T11:36:57.239Z,11.95
2022-10-28T11:39:36.850Z,12.88
2022-10-28T11:42:18.830Z,13.05
2022-10-28T11:44:55.674Z,13.02
2022-10-28T11:47:41.484Z,11.05
2022-10-28T11:50:31.805Z,9.93
2022-10-28T11:53:56.125Z,11.18
2022-10-28T11:56:38.460Z,10.38
2022-10-28T11:59:26.666Z,11.43
2022-10-28T12:02:02.663Z,11.15
2022-10-28T12:04:41.602Z,11.68
2022-10-28T12:07:33.932Z,11.50
2022-10-28T12:10:10.973Z,10.77
2022-10-28T12:13:27.012Z,11.65
2022-10-28T12:16:08.581Z,10.18
2022-10-28T12:18:44.525Z,10.02
2022-10-28T12:24:06.419Z,10.07
2022-10-28T12:26:40.467Z,10.45
2022-10-28T12:29:21.092Z,9.63
2022-10-28T12:31:57.498Z,10.70
2022-10-28T12:34:56.442Z,10.38
2022-10-28T12:37:34.234Z,10.40
2022-10-28T12:40:17.100Z,11.25
2022-10-28T12:42:53.013Z,11.27
2022-10-28T12:45:22.246Z,10.95
2022-10-28T12:48:01.110Z,9.98
2022-10-28T12:50:46.568Z,10.40
2022-10-28T12:53:19.598Z,9.50
2022-10-28T12:56:12.371Z,9.52
2022-10-28T12:58:51.141Z,9.27
2022-10-28T13:01:21.188Z,8.80
2022-10-28T13:03:50.800Z,8.75
2022-10-28T13:06:26.064Z,8.43
2022-10-28T13:09:37.924Z,7.43
2022-10-28T13:12:20.610Z,7.55
2022-10-28T13:15:19.002Z,8.25
2022-10-28T13:18:06.850Z,7.90
2022-10-28T13:20:55.012Z,7.38
2022-10-28T13:23:40.783Z,8.10
2022-10-28T13:26:27.695Z,7.63
2022-10-28T13:28:57.102Z,7.07
2022-10-28T13:31:35.545Z,7.90
2022-10-28T13:34:02.694Z,7.90
2022-10-28T13:36:41.050Z,7.82
2022-10-28T13:39:39.457Z,7.93
2022-10-28T13:42:17.629Z,7.13
2022-10-28T13:44:53.014Z,7.68
2022-10-28T13:47:32.456Z,7.65
2022-10-28T13:50:08.980Z,7.82
2022-10-28T13:52:38.324Z,8.77
2022-10-28T13:55:14.239Z,8.23
2022-10-28T13:57:46.574Z,8.25
2022-10-28T14:00:20.247Z,10.40
2022-10-28T14:02:56.427Z,10.43
2022-10-28T14:05:46.766Z,9.88
2022-10-28T14:08:31.101Z,9.15
2022-10-28T14:11:13.782Z,9.85
2022-10-28T14:14:04.122Z,10.18
2022-10-28T14:16:44.156Z,9.65
2022-10-28T14:19:11.010Z,9.52
2022-10-28T14:22:01.532Z,10.07
2022-10-28T14:24:40.821Z,10.30
2022-10-28T14:27:15.556Z,11.43
2022-10-28T14:29:56.237Z,10.52
2022-10-28T14:32:32.161Z,11.13
2022-10-28T14:35:13.010Z,11.75
2022-10-28T14:38:11.146Z,10.95
2022-10-28T14:40:49.301Z,10.55
2022-10-28T14:44:04.218Z,12.32
2022-10-28T14:46:34.193Z,11.75
2022-10-28T14:49:04.141Z,12.75
2022-10-28T14:51:39.958Z,12.48
2022-10-28T14:54:13.536Z,14.07
2022-10-28T14:56:41.423Z,12.90
2022-10-28T14:59:29.508Z,12.45
2022-10-28T15:02:01.325Z,13.27
2022-10-28T15:04:30.100Z,13.85
2022-10-28T15:06:57.699Z,12.35
2022-10-28T15:09:30.191Z,13.75
2022-10-28T15:12:01.330Z,12.90
2022-10-28T15:14:32.756Z,12.55
2022-10-28T15:17:03.817Z,12.32
2022-10-28T15:19:34.468Z,14.88
2022-10-28T15:22:20.435Z,14.27
2022-10-28T15:25:06.045Z,13.88
2022-10-28T15:27:35.294Z,14.80
2022-10-28T15:30:04.294Z,14.48
2022-10-28T15:32:34.221Z,15.65
2022-10-28T15:35:39.493Z,15.82
2022-10-28T15:40:52.194Z,14.57
2022-10-28T15:43:29.776Z,15.80
2022-10-28T15:46:17.040Z,15.07
2022-10-28T15:48:44.349Z,15.13
2022-10-28T15:51:19.552Z,15.43
2022-10-28T15:54:10.087Z,14.98
2022-10-28T15:56:58.030Z,14.00
2022-10-28T15:59:26.527Z,13.65
2022-10-28T16:01:58.707Z,16.02
2022-10-28T16:04:43.115Z,16.40
2022-10-28T16:07:10.280Z,14.82
2022-10-28T16:09:48.381Z,14.70
2022-10-28T16:12:18.431Z,17.80
2022-10-28T16:15:02.304Z,17.80
2022-10-28T16:17:36.361Z,21.17
2022-10-28T16:20:17.122Z,21.13
2022-10-28T16:22:46.672Z,22.63
2022-10-28T16:25:22.999Z,21.98
2022-10-28T16:31:31.654Z,22.02
2022-10-28T16:33:59.527Z,22.20
2022-10-28T16:36:28.406Z,21.95
2022-10-28T16:38:55.284Z,21.50
2022-10-28T16:41:22.931Z,22.23
2022-10-28T16:43:49.794Z,20.17
2022-10-28T16:46:16.805Z,22.00
2022-10-28T16:48:43.749Z,21.60
2022-10-28T16:51:17.656Z,21.85
2022-10-28T16:53:47.472Z,22.90
2022-10-28T16:56:15.924Z,21.00
2022-10-28T16:58:44.179Z,21.67
2022-10-28T17:01:12.131Z,20.73
2022-10-28T17:03:39.204Z,22.90
2022-10-28T17:06:06.286Z,19.45
2022-10-28T17:11:20.313Z,20.65
2022-10-28T17:13:48.075Z,21.40
2022-10-28T17:16:14.997Z,20.83
2022-10-28T17:18:43.688Z,20.83
2022-10-28T17:21:10.710Z,22.63
2022-10-28T17:23:39.797Z,20.85
2022-10-28T17:26:06.803Z,22.58
2022-10-28T17:28:33.693Z,22.80
2022-10-28T17:31:05.963Z,23.90
2022-10-28T17:33:33.569Z,23.25
2022-10-28T17:36:06.013Z,23.55
2022-10-28T17:38:33.107Z,22.10
2022-10-28T17:41:00.088Z,20.85
2022-10-28T17:43:27.031Z,22.83
2022-10-28T17:46:06.652Z,21.17
2022-10-28T17:48:34.338Z,23.10
2022-10-28T17:51:01.326Z,24.35
2022-10-28T17:53:28.454Z,25.98
2022-10-28T17:56:01.986Z,27.38
2022-10-28T17:58:29.161Z,30.90
2022-10-28T18:01:00.749Z,35.05
2022-10-28T18:03:28.469Z,35.65
2022-10-28T18:05:55.664Z,34.33
2022-10-28T18:08:23.180Z,36.85
2022-10-28T18:14:37.476Z,35.42
2022-10-28T18:17:04.440Z,38.60
2022-10-28T18:19:31.349Z,37.75
2022-10-28T18:21:58.277Z,36.90
2022-10-28T18:24:26.207Z,39.35
2022-10-28T18:26:54.890Z,39.47
2022-10-28T18:29:21.851Z,41.15
2022-10-28T18:35:36.337Z,43.63
2022-10-28T18:38:03.333Z,40.53
2022-10-28T18:40:30.195Z,44.08
2022-10-28T18:46:45.946Z,45.05
2022-10-28T18:49:12.805Z,40.67
2022-10-28T18:51:39.721Z,40.53
2022-10-28T18:54:06.682Z,40.38
2022-10-28T18:56:34.418Z,45.58
2022-10-28T18:59:03.598Z,43.85
2022-10-28T19:01:31.929Z,48.33
2022-10-28T19:04:01.475Z,46.35
2022-10-28T19:06:32.547Z,51.80
2022-10-28T19:09:02.410Z,52.90
2022-10-28T19:11:31.437Z,56.10
2022-10-28T19:14:00.184Z,56.88
2022-10-28T19:16:28.560Z,56.85
2022-10-28T19:18:57.191Z,59.83
2022-10-28T19:21:24.874Z,56.53
2022-10-28T19:23:51.724Z,58.63
2022-10-28T19:26:19.089Z,62.05
2022-10-28T19:28:48.296Z,73.75
2022-10-28T19:31:21.140Z,72.78
2022-10-28T19:33:48.726Z,65.85
2022-10-28T19:36:21.313Z,59.00
2022-10-28T19:38:49.773Z,64.95
2022-10-28T19:41:25.140Z,69.13
2022-10-28T19:43:58.476Z,63.10
2022-10-28T19:50:13.493Z,63.40
2022-10-28T19:52:44.747Z,69.05
2022-10-28T19:55:14.868Z,69.65
2022-10-28T19:57:42.059Z,67.03
2022-10-28T20:00:10.286Z,68.22
2022-10-28T20:02:37.316Z,72.40
2022-10-28T20:05:04.610Z,74.68
2022-10-28T20:07:31.534Z,71.43
2022-10-28T20:12:27.068Z,69.07
2022-10-28T20:14:53.953Z,74.53
2022-10-28T20:17:20.979Z,76.13
2022-10-28T20:19:47.911Z,72.32
2022-10-28T20:22:14.790Z,66.28
2022-10-28T20:24:41.859Z,67.00
2022-10-28T20:27:08.769Z,70.38
2022-10-28T20:29:35.647Z,73.07
2022-10-28T20:32:02.845Z,75.55
2022-10-28T20:34:29.803Z,74.53
2022-10-28T20:36:56.684Z,69.70
2022-10-28T20:39:23.567Z,71.15
2022-10-28T20:41:51.364Z,71.57
2022-10-28T20:44:18.501Z,71.65
2022-10-28T20:46:48.119Z,68.55
2022-10-28T20:49:15.531Z,70.05
2022-10-28T20:51:42.627Z,71.22
2022-10-28T20:54:09.658Z,68.97
2022-10-28T20:56:38.541Z,69.40
2022-10-28T20:59:06.180Z,65.22
2022-10-28T21:01:36.589Z,67.45
2022-10-28T21:04:07.329Z,69.10
2022-10-28T21:06:34.913Z,71.25
2022-10-28T21:09:01.846Z,71.40
2022-10-28T21:11:29.340Z,75.53
2022-10-28T21:13:58.488Z,73.57
2022-10-28T21:16:26.813Z,71.22
2022-10-28T21:18:54.159Z,75.00
2022-10-28T21:21:22.238Z,69.95
2022-10-28T21:23:49.300Z,65.90
2022-10-28T21:26:16.585Z,68.45
2022-10-28T21:28:43.563Z,70.13
2022-10-28T21:31:13.070Z,67.40
2022-10-28T21:33:41.398Z,64.70
2022-10-28T21:36:14.094Z,66.68
2022-10-28T21:38:41.018Z,66.40
2022-10-28T21:41:10.951Z,69.28
2022-10-28T21:43:39.734Z,66.15
2022-10-28T21:46:07.341Z,64.38
2022-10-28T21:48:35.414Z,65.70
2022-10-28T21:51:07.217Z,63.35
2022-10-28T21:53:37.993Z,63.85
2022-10-28T21:56:17.149Z,68.03
2022-10-28T21:58:46.174Z,63.13
2022-10-28T22:01:15.969Z,64.22
2022-10-28T22:03:43.116Z,62.53
2022-10-28T22:06:10.223Z,63.58
2022-10-28T22:08:37.145Z,61.03
2022-10-28T22:11:06.824Z,61.92
2022-10-28T22:13:34.591Z,59.67
2022-10-28T22:16:04.326Z,58.42
2022-10-28T22:18:33.618Z,54.38
2022-10-28T22:21:08.783Z,55.92
2022-10-28T22:23:36.872Z,56.53
2022-10-28T22:26:05.712Z,56.78
2022-10-28T22:28:33.066Z,57.65
2022-10-28T22:31:04.949Z,58.30
2022-10-28T22:33:32.190Z,57.13
2022-10-28T22:36:01.147Z,61.17
2022-10-28T22:38:28.372Z,59.05
2022-10-28T22:41:31.712Z,57.63
2022-10-28T22:44:00.613Z,61.28
2022-10-28T22:46:30.162Z,59.83
2022-10-28T22:48:57.154Z,62.10
2022-10-28T22:51:24.418Z,57.53
2022-10-28T22:53:51.570Z,59.97
2022-10-28T22:56:21.457Z,58.95
2022-10-28T22:59:02.080Z,58.45
2022-10-28T23:01:29.939Z,59.25
2022-10-28T23:03:57.368Z,63.75
2022-10-28T23:06:26.703Z,60.58
2022-10-28T23:08:54.328Z,67.22
2022-10-28T23:11:22.477Z,63.72
2022-10-28T23:13:53.976Z,65.53
2022-10-28T23:16:22.144Z,63.75
2022-10-28T23:18:49.148Z,61.78
2022-10-28T23:21:24.695Z,60.42
2022-10-28T23:23:56.815Z,62.67
2022-10-28T23:26:24.530Z,64.82
2022-10-28T23:28:56.837Z,60.03
2022-10-28T23:31:24.438Z,62.85
2022-10-28T23:33:53.552Z,64.53
2022-10-28T23:36:20.790Z,63.28
2022-10-28T23:38:47.828Z,62.45
2022-10-28T23:41:18.780Z,60.22
2022-10-28T23:43:46.765Z,62.67
2022-10-28T23:46:13.612Z,61.10
2022-10-28T23:48:40.673Z,61.20
2022-10-28T23:51:07.664Z,61.20
2022-10-28T23:53:35.036Z,60.13
2022-10-28T23:56:02.007Z,59.00
2022-10-28T23:58:28.871Z,59.30
